Accueil
METAR-TAF:

METAR-TAF

Aéroports :

Middle Peninsula Regional Airport

West Point, Virginie, États-Unis

latitude: 37-31-16N, longitude: 076-45-52W, altitude: 7 m

Observation

Le bulletin a été fait il y a 15 minutes, à 22:35 UTC
Vent 11 kt de ouest/sud-ouest avec des rafales jusqu'à 17 kt
Température 9°C
Humidité 40%
Pression 1013 hPa
Visibilité: 16.1 km
Nuages épars à une hauteur de 6000 ft
Nuages fragmentés à une hauteur de 7000 ft
Nuages fragmentés à une hauteur de 10000 ft

METAR: KFYJ 282235Z AUTO 24011G17KT 10SM SCT060 BKN070 BKN100 09/M04 A2990 RMK AO1 T00861036

Heure: 17:50 (22:50 UTC)


TAF: absent

Observations et prévisions météorologiques de plus de 4000 aéroports (messages METAR et TAF).

Les stations disponibles sont représentées par des disques jaunes et rouges sur la carte.

Passer la souris dessus pour voir le nom de la station.

Cliquer dessus pour voir les observations et prévisions météorologiques.

Pour changer de carte: cliquez sur les boutons verts avec une croix noire pour zoomer, sur le bouton vert avec un tiret pour effectuer un zoom arrière, ou sur les flèches vertes pour les cartes adjacentes.


METAR-TAF: